createdAt,value
2022-09-11T00:01:16.318Z,6.32
2022-09-11T00:03:44.821Z,6.53
2022-09-11T00:06:27.498Z,5.57
2022-09-11T00:09:01.059Z,6.50
2022-09-11T00:11:35.732Z,5.93
2022-09-11T00:14:06.423Z,6.50
2022-09-11T00:16:36.315Z,5.68
2022-09-11T00:19:06.811Z,5.90
2022-09-11T00:21:36.391Z,5.78
2022-09-11T00:24:04.330Z,6.63
2022-09-11T00:26:31.325Z,6.82
2022-09-11T00:29:00.655Z,6.10
2022-09-11T00:31:29.856Z,5.50
2022-09-11T00:33:58.785Z,5.15
2022-09-11T00:36:28.931Z,6.68
2022-09-11T00:38:56.470Z,7.15
2022-09-11T00:41:28.217Z,7.97
2022-09-11T00:43:56.805Z,7.38
2022-09-11T00:46:37.252Z,7.20
2022-09-11T00:49:17.501Z,7.13
2022-09-11T00:51:47.961Z,5.78
2022-09-11T00:54:18.233Z,7.30
2022-09-11T00:56:45.061Z,6.97
2022-09-11T00:59:12.822Z,6.72
2022-09-11T01:01:39.757Z,7.05
2022-09-11T01:04:08.716Z,6.78
2022-09-11T01:06:36.068Z,7.20
2022-09-11T01:09:02.936Z,6.85
2022-09-11T01:12:04.875Z,6.63
2022-09-11T01:14:53.421Z,7.07
2022-09-11T01:17:50.545Z,6.90
2022-09-11T01:20:31.197Z,6.22
2022-09-11T01:23:31.488Z,6.22
2022-09-11T01:26:09.394Z,6.65
2022-09-11T01:28:55.316Z,6.97
2022-09-11T01:31:26.394Z,6.88
2022-09-11T01:34:21.209Z,7.65
2022-09-11T01:36:56.042Z,6.18
2022-09-11T01:39:29.969Z,7.28
2022-09-11T01:42:03.629Z,7.20
2022-09-11T01:44:47.654Z,7.68
2022-09-11T01:47:17.201Z,7.43
2022-09-11T01:49:50.038Z,6.65
2022-09-11T01:52:23.128Z,6.80
2022-09-11T01:54:59.703Z,7.03
2022-09-11T01:57:51.334Z,7.65
2022-09-11T02:00:18.970Z,7.78
2022-09-11T02:03:16.897Z,8.90
2022-09-11T02:05:49.012Z,8.20
2022-09-11T02:08:28.057Z,8.35
2022-09-11T02:11:03.485Z,8.23
2022-09-11T02:13:45.714Z,7.57
2022-09-11T02:16:23.138Z,7.95
2022-09-11T02:18:50.377Z,8.33
2022-09-11T02:21:17.147Z,7.70
2022-09-11T02:23:45.390Z,8.23
2022-09-11T02:26:14.619Z,8.43
2022-09-11T02:28:41.884Z,8.15
2022-09-11T02:31:10.023Z,8.13
2022-09-11T02:33:37.646Z,8.13
2022-09-11T02:36:40.514Z,7.82
2022-09-11T02:39:32.364Z,7.53
2022-09-11T02:42:08.272Z,7.60
2022-09-11T02:44:42.020Z,6.80
2022-09-11T02:47:25.716Z,7.15
2022-09-11T02:50:03.744Z,7.53
2022-09-11T02:53:02.497Z,8.65
2022-09-11T02:56:01.328Z,8.60
2022-09-11T02:58:38.987Z,8.63
2022-09-11T03:01:08.803Z,8.27
2022-09-11T03:03:41.966Z,9.07
2022-09-11T03:06:13.603Z,8.88
2022-09-11T03:08:41.068Z,7.93
2022-09-11T03:11:09.476Z,8.70
2022-09-11T03:13:36.953Z,7.93
2022-09-11T03:16:05.234Z,9.40
2022-09-11T03:18:33.096Z,9.18
2022-09-11T03:21:01.027Z,9.93
2022-09-11T03:23:28.281Z,9.52
2022-09-11T03:25:58.754Z,8.45
2022-09-11T03:28:26.189Z,9.65
2022-09-11T03:30:53.290Z,10.00
2022-09-11T03:33:20.819Z,10.07
2022-09-11T03:35:49.714Z,10.93
2022-09-11T03:38:16.569Z,9.70
2022-09-11T03:40:46.271Z,10.23
2022-09-11T03:43:13.456Z,10.70
2022-09-11T03:45:42.379Z,9.73
2022-09-11T03:48:10.052Z,11.33
2022-09-11T03:50:37.383Z,10.48
2022-09-11T03:53:05.152Z,10.45
2022-09-11T03:55:32.061Z,11.50
2022-09-11T03:58:00.405Z,11.52
2022-09-11T04:00:27.618Z,11.37
2022-09-11T04:02:57.289Z,12.70
2022-09-11T04:05:43.924Z,16.38
2022-09-11T04:08:13.960Z,20.83
2022-09-11T04:10:44.178Z,19.42
2022-09-11T04:13:12.040Z,21.03
2022-09-11T04:15:39.218Z,25.70
2022-09-11T04:18:07.204Z,19.33
2022-09-11T04:20:38.150Z,21.38
2022-09-11T04:23:07.468Z,33.10
2022-09-11T04:25:34.670Z,26.40
2022-09-11T04:28:03.996Z,21.23
2022-09-11T04:30:30.996Z,21.40
2022-09-11T04:32:58.947Z,19.63
2022-09-11T04:35:26.572Z,19.65
2022-09-11T04:37:56.433Z,16.47
2022-09-11T04:40:23.250Z,21.80
2022-09-11T04:42:50.505Z,18.60
2022-09-11T04:45:20.549Z,13.82
2022-09-11T04:47:49.286Z,15.00
2022-09-11T04:50:16.453Z,19.27
2022-09-11T04:52:45.400Z,17.63
2022-09-11T04:55:12.235Z,21.77
2022-09-11T04:57:41.073Z,18.02
2022-09-11T05:00:10.785Z,17.10
2022-09-11T05:02:40.472Z,18.70
2022-09-11T05:05:09.233Z,17.80
2022-09-11T05:07:36.640Z,16.42
2022-09-11T05:10:05.972Z,13.43
2022-09-11T05:12:33.291Z,15.32
2022-09-11T05:15:00.232Z,17.77
2022-09-11T05:17:31.119Z,14.18
2022-09-11T05:19:58.874Z,13.43
2022-09-11T05:22:26.414Z,13.32
2022-09-11T05:24:56.783Z,14.10
2022-09-11T05:27:24.155Z,13.82
2022-09-11T05:29:51.381Z,14.20
2022-09-11T05:32:18.522Z,12.48
2022-09-11T05:34:45.754Z,12.32
2022-09-11T05:37:17.868Z,12.52
2022-09-11T05:39:46.088Z,13.55
2022-09-11T05:42:15.250Z,13.95
2022-09-11T05:44:47.208Z,15.88
2022-09-11T05:47:14.444Z,15.57
2022-09-11T05:49:43.324Z,15.18
2022-09-11T05:52:10.907Z,16.30
2022-09-11T05:54:39.521Z,19.25
2022-09-11T05:57:07.966Z,23.40
2022-09-11T05:59:37.222Z,21.67
2022-09-11T06:02:04.408Z,18.95
2022-09-11T06:04:39.865Z,20.20
2022-09-11T06:07:08.220Z,17.98
2022-09-11T06:09:36.053Z,17.92
2022-09-11T06:12:03.005Z,15.82
2022-09-11T06:14:30.219Z,16.63
2022-09-11T06:16:57.239Z,20.33
2022-09-11T06:19:25.964Z,18.10
2022-09-11T06:21:54.398Z,19.55
2022-09-11T06:24:28.866Z,13.45
2022-09-11T06:26:56.889Z,18.92
2022-09-11T06:29:25.725Z,16.48
2022-09-11T06:31:54.193Z,16.40
2022-09-11T06:34:24.033Z,13.65
2022-09-11T06:36:52.552Z,14.88
2022-09-11T06:39:22.760Z,13.98
2022-09-11T06:41:50.610Z,16.63
2022-09-11T06:44:20.292Z,15.27
2022-09-11T06:46:47.763Z,12.88
2022-09-11T06:49:14.677Z,13.23
2022-09-11T06:52:00.544Z,11.35
2022-09-11T06:54:29.880Z,12.70
2022-09-11T06:56:58.744Z,12.55
2022-09-11T06:59:27.114Z,13.25
2022-09-11T07:01:54.741Z,12.73
2022-09-11T07:04:23.396Z,11.93
2022-09-11T07:06:51.097Z,13.85
2022-09-11T07:09:18.752Z,11.95
2022-09-11T07:11:53.838Z,13.05
2022-09-11T07:14:23.405Z,12.82
2022-09-11T07:16:55.807Z,12.77
2022-09-11T07:19:25.353Z,13.77
2022-09-11T07:21:52.102Z,12.18
2022-09-11T07:24:20.422Z,12.63
2022-09-11T07:26:47.552Z,13.15
2022-09-11T07:29:20.496Z,12.88
2022-09-11T07:31:49.640Z,14.48
2022-09-11T07:34:16.978Z,13.60
2022-09-11T07:36:45.462Z,13.63
2022-09-11T07:39:12.717Z,13.00
2022-09-11T07:41:51.660Z,16.15
2022-09-11T07:44:26.366Z,13.95
2022-09-11T07:46:53.392Z,14.77
2022-09-11T07:49:20.902Z,16.90
2022-09-11T07:51:50.424Z,14.68
2022-09-11T07:54:23.571Z,16.23
2022-09-11T07:56:51.404Z,14.73
2022-09-11T07:59:18.228Z,13.93
2022-09-11T08:01:48.315Z,13.18
2022-09-11T08:04:18.423Z,14.20
2022-09-11T08:06:45.906Z,14.60
2022-09-11T08:09:22.436Z,14.20
2022-09-11T08:11:55.617Z,14.13
2022-09-11T08:14:27.583Z,13.00
2022-09-11T08:16:58.661Z,14.50
2022-09-11T08:19:30.440Z,13.10
2022-09-11T08:22:01.201Z,14.40
2022-09-11T08:24:33.929Z,13.45
2022-09-11T08:27:05.239Z,13.00
2022-09-11T08:29:33.322Z,13.45
2022-09-11T08:32:02.529Z,11.80
2022-09-11T08:34:31.093Z,10.90
2022-09-11T08:36:59.681Z,10.27
2022-09-11T08:39:29.570Z,10.25
2022-09-11T08:42:06.153Z,8.82
2022-09-11T08:44:47.835Z,9.13
2022-09-11T08:47:33.458Z,9.98
2022-09-11T08:50:11.702Z,7.47
2022-09-11T08:52:39.576Z,8.07
2022-09-11T08:55:13.525Z,7.05
2022-09-11T08:58:04.622Z,7.10
2022-09-11T09:00:43.434Z,6.85
2022-09-11T09:03:42.770Z,5.40
2022-09-11T09:06:21.317Z,5.80
2022-09-11T09:09:11.581Z,5.75
2022-09-11T09:11:57.537Z,4.68
2022-09-11T09:14:49.200Z,4.20
2022-09-11T09:17:24.916Z,4.67
2022-09-11T09:20:09.633Z,5.25
2022-09-11T09:22:50.294Z,5.47
2022-09-11T09:25:24.836Z,7.38
2022-09-11T09:28:00.436Z,5.55
2022-09-11T09:30:44.255Z,6.40
2022-09-11T09:33:15.693Z,5.72
2022-09-11T09:35:44.894Z,5.05
2022-09-11T09:38:21.831Z,4.30
2022-09-11T09:41:27.653Z,4.32
2022-09-11T09:44:29.921Z,4.10
2022-09-11T09:46:56.713Z,4.35
2022-09-11T09:49:28.162Z,5.40
2022-09-11T09:51:58.900Z,3.70
2022-09-11T09:54:32.745Z,4.18
2022-09-11T09:57:10.287Z,4.17
2022-09-11T09:59:57.271Z,4.00
2022-09-11T10:02:57.909Z,3.60
2022-09-11T10:05:34.772Z,4.22
2022-09-11T10:08:06.009Z,4.15
2022-09-11T10:10:38.339Z,4.00
2022-09-11T10:13:32.400Z,3.70
2022-09-11T10:16:03.707Z,3.55
2022-09-11T10:18:33.651Z,3.80
2022-09-11T10:21:11.935Z,3.30
2022-09-11T10:23:52.910Z,4.30
2022-09-11T10:26:47.713Z,4.32
2022-09-11T10:29:26.348Z,4.20
2022-09-11T10:31:57.893Z,4.55
2022-09-11T10:34:27.945Z,5.00
2022-09-11T10:37:00.990Z,4.30
2022-09-11T10:39:31.732Z,3.80
2022-09-11T10:42:05.617Z,3.03
2022-09-11T10:44:33.260Z,3.30
2022-09-11T10:47:15.510Z,2.92
2022-09-11T10:49:42.503Z,3.63
2022-09-11T10:52:09.249Z,3.45
2022-09-11T10:55:00.160Z,3.20
2022-09-11T10:57:47.751Z,3.42
2022-09-11T11:00:21.867Z,3.42
2022-09-11T11:02:58.058Z,3.50
2022-09-11T11:05:58.239Z,3.70
2022-09-11T11:08:45.882Z,3.92
2022-09-11T11:11:18.621Z,3.25
2022-09-11T11:13:46.847Z,3.40
2022-09-11T11:16:48.736Z,3.33
2022-09-11T11:19:28.816Z,3.03
2022-09-11T11:22:34.445Z,3.10
2022-09-11T11:25:19.937Z,4.63
2022-09-11T11:28:04.787Z,3.40
2022-09-11T11:31:15.833Z,4.33
2022-09-11T11:34:10.412Z,4.47
2022-09-11T11:37:00.328Z,4.18
2022-09-11T11:40:02.078Z,4.20
2022-09-11T11:42:35.526Z,3.42
2022-09-11T11:45:19.608Z,5.37
2022-09-11T11:47:48.693Z,4.70
2022-09-11T11:50:31.067Z,4.50
2022-09-11T11:53:20.691Z,4.05
2022-09-11T11:56:06.282Z,4.70
2022-09-11T11:58:51.807Z,4.80
2022-09-11T12:01:40.091Z,5.25
2022-09-11T12:04:21.371Z,4.50
2022-09-11T12:06:48.229Z,4.70
2022-09-11T12:09:17.336Z,3.92
2022-09-11T12:11:47.329Z,4.60
2022-09-11T12:14:27.498Z,3.80
2022-09-11T12:16:56.304Z,3.80
2022-09-11T12:19:25.622Z,3.30
2022-09-11T12:21:52.314Z,4.30
2022-09-11T12:24:43.396Z,3.03
2022-09-11T12:27:36.916Z,3.65
2022-09-11T12:30:30.811Z,4.50
2022-09-11T12:33:02.358Z,3.30
2022-09-11T12:35:45.417Z,4.30
2022-09-11T12:38:38.064Z,4.03
2022-09-11T12:41:13.074Z,4.00
2022-09-11T12:44:00.762Z,6.75
2022-09-11T12:46:27.961Z,5.80
2022-09-11T12:49:23.483Z,4.38
2022-09-11T12:51:54.239Z,3.30
2022-09-11T12:54:53.668Z,7.45
2022-09-11T12:57:40.768Z,6.32
2022-09-11T13:00:21.388Z,4.80
2022-09-11T13:02:55.367Z,3.30
2022-09-11T13:05:30.095Z,3.30
2022-09-11T13:08:00.575Z,3.50
2022-09-11T13:10:39.085Z,3.30
2022-09-11T13:13:34.473Z,3.20
2022-09-11T13:16:30.964Z,3.80
2022-09-11T13:19:12.148Z,3.37
2022-09-11T13:21:41.724Z,3.20
2022-09-11T13:24:30.962Z,2.85
2022-09-11T13:27:07.555Z,9.52
2022-09-11T13:29:37.953Z,5.57
2022-09-11T13:32:13.682Z,3.70
2022-09-11T13:34:47.417Z,3.78
2022-09-11T13:37:26.556Z,3.47
2022-09-11T13:39:53.741Z,3.60
2022-09-11T13:42:23.210Z,3.03
2022-09-11T13:44:53.076Z,3.50
2022-09-11T13:47:23.368Z,3.50
2022-09-11T13:50:00.950Z,3.40
2022-09-11T13:52:33.088Z,3.65
2022-09-11T13:55:04.402Z,3.17
2022-09-11T13:57:32.007Z,3.27
2022-09-11T14:00:00.467Z,3.13
2022-09-11T14:02:40.928Z,2.83
2022-09-11T14:05:10.582Z,3.22
2022-09-11T14:07:48.465Z,3.58
2022-09-11T14:10:24.030Z,3.50
2022-09-11T14:13:20.341Z,3.50
2022-09-11T14:16:05.584Z,3.40
2022-09-11T14:19:07.663Z,4.00
2022-09-11T14:21:40.260Z,3.28
2022-09-11T14:24:26.904Z,3.00
2022-09-11T14:26:57.548Z,3.22
2022-09-11T14:29:31.351Z,3.10
2022-09-11T14:32:33.700Z,3.00
2022-09-11T14:35:09.870Z,3.38
2022-09-11T14:37:44.081Z,3.50
2022-09-11T14:40:19.847Z,2.80
2022-09-11T14:42:47.640Z,2.78
2022-09-11T14:45:20.794Z,3.13
2022-09-11T14:47:47.572Z,2.90
2022-09-11T14:50:14.760Z,2.97
2022-09-11T14:52:45.139Z,2.70
2022-09-11T14:55:16.700Z,2.55
2022-09-11T14:57:46.476Z,2.70
2022-09-11T15:00:15.333Z,3.03
2022-09-11T15:02:42.505Z,2.90
2022-09-11T15:05:15.900Z,2.88
2022-09-11T15:07:47.196Z,3.10
2022-09-11T15:10:14.977Z,2.90
2022-09-11T15:12:42.592Z,4.95
2022-09-11T15:15:11.152Z,12.10
2022-09-11T15:17:37.869Z,6.75
2022-09-11T15:20:07.088Z,4.80
2022-09-11T15:22:34.733Z,4.65
2022-09-11T15:25:02.097Z,3.67
2022-09-11T15:27:29.076Z,3.00
2022-09-11T15:29:56.331Z,3.28
2022-09-11T15:32:24.454Z,2.78
2022-09-11T15:35:19.474Z,2.85
2022-09-11T15:37:46.982Z,3.47
2022-09-11T15:40:14.305Z,3.13
2022-09-11T15:42:42.294Z,3.15
2022-09-11T15:45:09.444Z,3.22
2022-09-11T15:47:36.581Z,2.80
2022-09-11T15:50:04.906Z,3.13
2022-09-11T15:52:33.535Z,2.83
2022-09-11T15:55:00.676Z,3.38
2022-09-11T15:57:29.926Z,14.85
2022-09-11T15:59:57.181Z,10.10
2022-09-11T16:02:24.602Z,6.18
2022-09-11T16:04:54.449Z,3.60
2022-09-11T16:07:21.998Z,3.50
2022-09-11T16:09:48.698Z,3.03
2022-09-11T16:12:15.975Z,3.50
2022-09-11T16:14:44.007Z,3.65
2022-09-11T16:17:11.677Z,3.13
2022-09-11T16:19:38.932Z,3.45
2022-09-11T16:22:08.043Z,3.30
2022-09-11T16:24:37.657Z,3.63
2022-09-11T16:27:10.819Z,3.33
2022-09-11T16:30:15.583Z,3.80
2022-09-11T16:32:37.320Z,3.67
2022-09-11T16:35:08.522Z,3.60
2022-09-11T16:37:35.390Z,3.50
2022-09-11T16:40:02.805Z,3.60
2022-09-11T16:42:30.000Z,3.03
2022-09-11T16:44:57.276Z,3.95
2022-09-11T16:47:24.270Z,3.42
2022-09-11T16:50:06.388Z,3.58
2022-09-11T16:52:34.619Z,10.10
2022-09-11T16:55:01.599Z,10.63
2022-09-11T16:57:28.436Z,4.53
2022-09-11T16:59:55.227Z,3.38
2022-09-11T17:02:21.989Z,3.00
2022-09-11T17:04:50.736Z,2.88
2022-09-11T17:07:18.243Z,3.17
2022-09-11T17:09:46.167Z,3.05
2022-09-11T17:12:13.225Z,3.05
2022-09-11T17:14:40.382Z,3.28
2022-09-11T17:17:07.110Z,8.85
2022-09-11T17:19:33.932Z,17.87
2022-09-11T17:22:01.167Z,6.50
2022-09-11T17:24:27.963Z,5.45
2022-09-11T17:26:56.416Z,4.30
2022-09-11T17:29:23.551Z,4.18
2022-09-11T17:32:01.068Z,3.90
2022-09-11T17:34:37.326Z,4.10
2022-09-11T17:37:05.025Z,4.10
2022-09-11T17:39:31.921Z,4.20
2022-09-11T17:41:58.732Z,4.55
2022-09-11T17:44:25.852Z,4.37
2022-09-11T17:46:52.649Z,4.55
2022-09-11T17:49:20.916Z,4.38
2022-09-11T17:51:50.828Z,4.85
2022-09-11T17:54:17.549Z,4.32
2022-09-11T17:56:44.282Z,4.70
2022-09-11T17:59:11.084Z,4.53
2022-09-11T18:01:37.894Z,4.20
2022-09-11T18:04:05.715Z,7.00
2022-09-11T18:06:35.997Z,6.10
2022-09-11T18:09:19.889Z,5.50
2022-09-11T18:11:50.352Z,5.00
2022-09-11T18:14:18.510Z,5.47
2022-09-11T18:16:47.275Z,4.78
2022-09-11T18:19:16.120Z,5.60
2022-09-11T18:21:49.796Z,5.47
2022-09-11T18:24:20.092Z,5.50
2022-09-11T18:26:49.877Z,5.45
2022-09-11T18:29:20.130Z,5.85
2022-09-11T18:31:50.080Z,5.80
2022-09-11T18:34:20.719Z,5.53
2022-09-11T18:36:48.720Z,5.35
2022-09-11T18:39:19.664Z,4.95
2022-09-11T18:41:47.627Z,4.72
2022-09-11T18:44:19.934Z,17.50
2022-09-11T18:46:47.590Z,7.27
2022-09-11T18:49:15.402Z,5.95
2022-09-11T18:51:42.591Z,5.63
2022-09-11T18:54:14.897Z,5.32
2022-09-11T18:56:45.512Z,5.30
2022-09-11T18:59:13.365Z,5.27
2022-09-11T19:01:41.255Z,5.45
2022-09-11T19:04:12.442Z,5.60
2022-09-11T19:06:39.929Z,5.93
2022-09-11T19:09:10.270Z,5.75
2022-09-11T19:11:37.920Z,5.32
2022-09-11T19:14:07.349Z,5.15
2022-09-11T19:16:34.996Z,5.25
2022-09-11T19:19:02.895Z,23.73
2022-09-11T19:21:31.556Z,21.25
2022-09-11T19:24:00.598Z,8.63
2022-09-11T19:26:28.353Z,6.05
2022-09-11T19:28:56.151Z,4.82
2022-09-11T19:31:27.582Z,5.00
2022-09-11T19:33:57.184Z,4.95
2022-09-11T19:36:26.238Z,4.78
2022-09-11T19:38:55.951Z,4.90
2022-09-11T19:41:25.882Z,4.97
2022-09-11T19:43:54.111Z,5.45
2022-09-11T19:46:26.662Z,5.30
2022-09-11T19:48:56.939Z,4.38
2022-09-11T19:51:41.977Z,4.97
2022-09-11T19:54:10.970Z,4.82
2022-09-11T19:56:38.505Z,5.43
2022-09-11T19:59:06.693Z,4.80
2022-09-11T20:01:34.393Z,4.50
2022-09-11T20:04:01.731Z,4.78
2022-09-11T20:06:31.030Z,4.72
2022-09-11T20:09:29.399Z,5.50
2022-09-11T20:11:47.564Z,5.35
2022-09-11T20:14:16.678Z,5.05
2022-09-11T20:16:45.302Z,5.40
2022-09-11T20:19:12.165Z,5.82
2022-09-11T20:21:39.796Z,5.70
2022-09-11T20:24:07.518Z,5.55
2022-09-11T20:26:35.103Z,5.75
2022-09-11T20:29:08.291Z,5.78
2022-09-11T20:31:46.375Z,6.78
2022-09-11T20:34:14.705Z,6.90
2022-09-11T20:36:42.441Z,7.00
2022-09-11T20:39:12.314Z,6.28
2022-09-11T20:41:39.523Z,6.78
2022-09-11T20:44:06.885Z,6.35
2022-09-11T20:46:34.294Z,6.38
2022-09-11T20:49:01.294Z,6.47
2022-09-11T20:51:28.516Z,6.63
2022-09-11T20:53:55.811Z,6.43
2022-09-11T20:56:23.718Z,6.65
2022-09-11T20:58:51.186Z,6.60
2022-09-11T21:01:23.206Z,6.60
2022-09-11T21:03:52.973Z,7.40
2022-09-11T21:06:25.661Z,7.13
2022-09-11T21:08:55.541Z,6.90
2022-09-11T21:11:25.121Z,7.03
2022-09-11T21:13:54.151Z,7.38
2022-09-11T21:16:21.630Z,7.15
2022-09-11T21:18:54.353Z,7.20
2022-09-11T21:21:22.537Z,7.97
2022-09-11T21:23:55.502Z,6.65
2022-09-11T21:26:24.708Z,6.85
2022-09-11T21:28:52.276Z,7.35
2022-09-11T21:31:19.705Z,7.13
2022-09-11T21:33:46.660Z,7.35
2022-09-11T21:36:13.917Z,6.88
2022-09-11T21:38:40.960Z,6.80
2022-09-11T21:41:10.176Z,6.63
2022-09-11T21:43:37.402Z,6.57
2022-09-11T21:46:06.572Z,6.10
2022-09-11T21:48:36.143Z,5.85
2022-09-11T21:51:08.955Z,5.30
2022-09-11T21:53:38.681Z,6.63
2022-09-11T21:56:05.961Z,6.95
2022-09-11T21:58:33.207Z,7.10
2022-09-11T22:01:05.797Z,6.78
2022-09-11T22:03:32.737Z,6.60
2022-09-11T22:05:59.884Z,7.32
2022-09-11T22:08:27.240Z,7.18
2022-09-11T22:10:54.284Z,7.10
2022-09-11T22:13:21.432Z,7.43
2022-09-11T22:15:50.120Z,8.23
2022-09-11T22:18:17.809Z,7.32
2022-09-11T22:20:46.748Z,8.30
2022-09-11T22:23:18.428Z,7.10
2022-09-11T22:25:45.461Z,7.38
2022-09-11T22:28:12.721Z,7.10
2022-09-11T22:30:43.732Z,7.13
2022-09-11T22:33:11.113Z,7.50
2022-09-11T22:35:38.445Z,7.78
2022-09-11T22:38:05.830Z,7.50
2022-09-11T22:40:35.098Z,7.88
2022-09-11T22:43:01.802Z,8.10
2022-09-11T22:45:30.788Z,7.55
2022-09-11T22:47:59.017Z,7.55
2022-09-11T22:50:26.351Z,9.02
2022-09-11T22:52:55.361Z,8.38
2022-09-11T22:55:22.680Z,7.60
2022-09-11T22:57:49.596Z,8.20
2022-09-11T23:00:18.772Z,8.13
2022-09-11T23:02:45.529Z,8.25
2022-09-11T23:05:33.200Z,8.55
2022-09-11T23:07:59.931Z,8.27
2022-09-11T23:10:28.811Z,8.75
2022-09-11T23:12:55.965Z,9.68
2022-09-11T23:15:23.198Z,9.57
2022-09-11T23:17:50.480Z,9.82
2022-09-11T23:20:19.266Z,8.52
2022-09-11T23:22:46.481Z,9.48
2022-09-11T23:25:13.821Z,9.23
2022-09-11T23:27:40.979Z,10.45
2022-09-11T23:30:10.197Z,8.90
2022-09-11T23:32:41.924Z,8.13
2022-09-11T23:35:09.358Z,9.60
2022-09-11T23:37:36.690Z,10.63
2022-09-11T23:40:07.176Z,8.55
2022-09-11T23:42:35.674Z,10.32
2022-09-11T23:45:02.805Z,10.60
2022-09-11T23:47:29.944Z,10.45
2022-09-11T23:49:57.688Z,10.02
2022-09-11T23:52:25.273Z,9.30
2022-09-11T23:54:54.529Z,10.05
2022-09-11T23:57:22.165Z,9.65
2022-09-11T23:59:49.287Z,10.07
